sensor_id;sensor_type;location;lat;lon;timestamp;P1;durP1;ratioP1;P2;durP2;ratioP2
51618;SDS011;38518;53.164;5.430;2022-09-29T00:01:15;3.60;;;2.50;;
51618;SDS011;38518;53.164;5.430;2022-09-29T00:03:40;3.80;;;2.30;;
51618;SDS011;38518;53.164;5.430;2022-09-29T00:06:10;2.63;;;2.40;;
51618;SDS011;38518;53.164;5.430;2022-09-29T00:08:39;3.40;;;2.40;;
51618;SDS011;38518;53.164;5.430;2022-09-29T00:11:12;4.53;;;2.10;;
51618;SDS011;38518;53.164;5.430;2022-09-29T00:13:40;4.20;;;2.40;;
51618;SDS011;38518;53.164;5.430;2022-09-29T00:16:07;3.50;;;2.42;;
51618;SDS011;38518;53.164;5.430;2022-09-29T00:18:33;2.53;;;1.70;;
51618;SDS011;38518;53.164;5.430;2022-09-29T00:21:00;2.17;;;1.98;;
51618;SDS011;38518;53.164;5.430;2022-09-29T00:23:27;3.03;;;2.00;;
51618;SDS011;38518;53.164;5.430;2022-09-29T00:26:00;2.35;;;1.63;;
51618;SDS011;38518;53.164;5.430;2022-09-29T00:28:28;2.45;;;1.60;;
51618;SDS011;38518;53.164;5.430;2022-09-29T00:30:54;1.70;;;1.50;;
51618;SDS011;38518;53.164;5.430;2022-09-29T00:33:23;1.95;;;1.80;;
51618;SDS011;38518;53.164;5.430;2022-09-29T00:35:56;2.33;;;1.80;;
51618;SDS011;38518;53.164;5.430;2022-09-29T00:38:23;2.08;;;1.88;;
51618;SDS011;38518;53.164;5.430;2022-09-29T00:40:49;2.25;;;1.83;;
51618;SDS011;38518;53.164;5.430;2022-09-29T00:43:23;1.90;;;1.80;;
51618;SDS011;38518;53.164;5.430;2022-09-29T00:46:08;2.22;;;1.60;;
51618;SDS011;38518;53.164;5.430;2022-09-29T00:48:36;1.95;;;1.73;;
51618;SDS011;38518;53.164;5.430;2022-09-29T00:51:04;2.50;;;1.90;;
51618;SDS011;38518;53.164;5.430;2022-09-29T00:53:30;1.92;;;1.73;;
51618;SDS011;38518;53.164;5.430;2022-09-29T00:56:01;1.85;;;1.73;;
51618;SDS011;38518;53.164;5.430;2022-09-29T00:58:32;2.73;;;1.70;;
51618;SDS011;38518;53.164;5.430;2022-09-29T01:01:03;1.63;;;1.52;;
51618;SDS011;38518;53.164;5.430;2022-09-29T01:03:32;3.30;;;2.10;;
51618;SDS011;38518;53.164;5.430;2022-09-29T01:06:07;3.22;;;2.50;;
51618;SDS011;38518;53.164;5.430;2022-09-29T01:08:57;1.90;;;1.70;;
51618;SDS011;38518;53.164;5.430;2022-09-29T01:11:25;2.55;;;2.00;;
51618;SDS011;38518;53.164;5.430;2022-09-29T01:13:51;1.70;;;1.60;;
51618;SDS011;38518;53.164;5.430;2022-09-29T01:16:18;2.13;;;1.85;;
51618;SDS011;38518;53.164;5.430;2022-09-29T01:18:44;2.30;;;2.03;;
51618;SDS011;38518;53.164;5.430;2022-09-29T01:32:45;3.40;;;1.48;;
51618;SDS011;38518;53.164;5.430;2022-09-29T01:35:31;2.08;;;1.40;;
51618;SDS011;38518;53.164;5.430;2022-09-29T01:41:01;3.50;;;1.98;;
51618;SDS011;38518;53.164;5.430;2022-09-29T01:46:03;2.22;;;1.75;;
51618;SDS011;38518;53.164;5.430;2022-09-29T01:48:36;2.10;;;1.90;;
51618;SDS011;38518;53.164;5.430;2022-09-29T01:51:24;2.38;;;2.17;;
51618;SDS011;38518;53.164;5.430;2022-09-29T01:54:02;2.03;;;1.83;;
51618;SDS011;38518;53.164;5.430;2022-09-29T01:56:37;2.45;;;1.70;;
51618;SDS011;38518;53.164;5.430;2022-09-29T01:59:16;2.92;;;2.47;;
51618;SDS011;38518;53.164;5.430;2022-09-29T02:01:43;2.70;;;2.50;;
51618;SDS011;38518;53.164;5.430;2022-09-29T02:04:12;3.78;;;2.13;;
51618;SDS011;38518;53.164;5.430;2022-09-29T02:07:13;3.38;;;2.80;;
51618;SDS011;38518;53.164;5.430;2022-09-29T02:09:45;3.80;;;3.50;;
51618;SDS011;38518;53.164;5.430;2022-09-29T02:12:17;4.13;;;3.28;;
51618;SDS011;38518;53.164;5.430;2022-09-29T02:14:47;3.75;;;2.17;;
51618;SDS011;38518;53.164;5.430;2022-09-29T02:17:16;4.05;;;2.58;;
51618;SDS011;38518;53.164;5.430;2022-09-29T02:19:46;3.28;;;2.13;;
51618;SDS011;38518;53.164;5.430;2022-09-29T02:22:15;2.78;;;2.50;;
51618;SDS011;38518;53.164;5.430;2022-09-29T02:24:44;4.45;;;2.90;;
51618;SDS011;38518;53.164;5.430;2022-09-29T02:27:11;2.97;;;2.78;;
51618;SDS011;38518;53.164;5.430;2022-09-29T02:29:37;2.80;;;2.50;;
51618;SDS011;38518;53.164;5.430;2022-09-29T02:32:03;3.83;;;3.40;;
51618;SDS011;38518;53.164;5.430;2022-09-29T02:34:31;3.53;;;3.10;;
51618;SDS011;38518;53.164;5.430;2022-09-29T02:42:24;3.08;;;2.50;;
51618;SDS011;38518;53.164;5.430;2022-09-29T02:45:22;4.10;;;3.75;;
51618;SDS011;38518;53.164;5.430;2022-09-29T02:56:11;4.43;;;3.40;;
51618;SDS011;38518;53.164;5.430;2022-09-29T02:58:54;5.25;;;4.85;;
51618;SDS011;38518;53.164;5.430;2022-09-29T03:01:31;5.18;;;4.68;;
51618;SDS011;38518;53.164;5.430;2022-09-29T03:03:58;4.10;;;3.63;;
51618;SDS011;38518;53.164;5.430;2022-09-29T03:06:25;6.10;;;5.50;;
51618;SDS011;38518;53.164;5.430;2022-09-29T03:08:51;4.72;;;4.32;;
51618;SDS011;38518;53.164;5.430;2022-09-29T03:11:17;4.03;;;3.33;;
51618;SDS011;38518;53.164;5.430;2022-09-29T03:13:43;4.60;;;4.20;;
51618;SDS011;38518;53.164;5.430;2022-09-29T03:16:09;5.45;;;4.90;;
51618;SDS011;38518;53.164;5.430;2022-09-29T03:18:34;5.05;;;4.55;;
51618;SDS011;38518;53.164;5.430;2022-09-29T03:21:00;4.38;;;3.42;;
51618;SDS011;38518;53.164;5.430;2022-09-29T03:23:26;4.38;;;4.07;;
51618;SDS011;38518;53.164;5.430;2022-09-29T03:25:52;4.57;;;4.18;;
51618;SDS011;38518;53.164;5.430;2022-09-29T03:28:18;5.10;;;4.70;;
51618;SDS011;38518;53.164;5.430;2022-09-29T03:30:43;5.90;;;5.30;;
51618;SDS011;38518;53.164;5.430;2022-09-29T03:33:09;4.20;;;3.72;;
51618;SDS011;38518;53.164;5.430;2022-09-29T03:35:36;5.70;;;4.93;;
51618;SDS011;38518;53.164;5.430;2022-09-29T03:38:02;5.55;;;3.88;;
51618;SDS011;38518;53.164;5.430;2022-09-29T03:40:27;4.82;;;4.43;;
51618;SDS011;38518;53.164;5.430;2022-09-29T03:42:53;4.13;;;3.72;;
51618;SDS011;38518;53.164;5.430;2022-09-29T03:45:19;5.15;;;4.65;;
51618;SDS011;38518;53.164;5.430;2022-09-29T03:47:45;7.82;;;6.93;;
51618;SDS011;38518;53.164;5.430;2022-09-29T03:50:11;4.38;;;3.97;;
51618;SDS011;38518;53.164;5.430;2022-09-29T03:52:38;4.28;;;3.88;;
51618;SDS011;38518;53.164;5.430;2022-09-29T03:55:03;4.20;;;3.80;;
51618;SDS011;38518;53.164;5.430;2022-09-29T03:57:29;4.32;;;3.92;;
51618;SDS011;38518;53.164;5.430;2022-09-29T03:59:55;4.75;;;4.35;;
51618;SDS011;38518;53.164;5.430;2022-09-29T04:02:21;6.82;;;5.38;;
51618;SDS011;38518;53.164;5.430;2022-09-29T04:04:47;5.03;;;4.60;;
51618;SDS011;38518;53.164;5.430;2022-09-29T04:07:13;4.28;;;3.92;;
51618;SDS011;38518;53.164;5.430;2022-09-29T04:09:38;5.68;;;5.15;;
51618;SDS011;38518;53.164;5.430;2022-09-29T04:12:04;4.35;;;3.95;;
51618;SDS011;38518;53.164;5.430;2022-09-29T04:14:30;7.82;;;7.03;;
51618;SDS011;38518;53.164;5.430;2022-09-29T04:16:56;6.38;;;5.30;;
51618;SDS011;38518;53.164;5.430;2022-09-29T04:19:22;4.72;;;4.32;;
51618;SDS011;38518;53.164;5.430;2022-09-29T04:21:48;5.20;;;4.22;;
51618;SDS011;38518;53.164;5.430;2022-09-29T04:24:14;5.68;;;4.88;;
51618;SDS011;38518;53.164;5.430;2022-09-29T04:26:44;5.47;;;4.55;;
51618;SDS011;38518;53.164;5.430;2022-09-29T04:29:10;5.88;;;4.75;;
51618;SDS011;38518;53.164;5.430;2022-09-29T04:31:36;5.05;;;4.20;;
51618;SDS011;38518;53.164;5.430;2022-09-29T04:34:02;5.95;;;5.28;;
51618;SDS011;38518;53.164;5.430;2022-09-29T04:36:28;6.50;;;5.90;;
51618;SDS011;38518;53.164;5.430;2022-09-29T04:38:53;7.25;;;5.20;;
51618;SDS011;38518;53.164;5.430;2022-09-29T04:41:19;8.38;;;7.63;;
51618;SDS011;38518;53.164;5.430;2022-09-29T04:43:45;5.03;;;4.53;;
51618;SDS011;38518;53.164;5.430;2022-09-29T04:46:11;5.15;;;4.50;;
51618;SDS011;38518;53.164;5.430;2022-09-29T04:48:38;5.50;;;5.10;;
51618;SDS011;38518;53.164;5.430;2022-09-29T04:51:04;5.03;;;4.53;;
51618;SDS011;38518;53.164;5.430;2022-09-29T04:53:30;6.55;;;6.00;;
51618;SDS011;38518;53.164;5.430;2022-09-29T04:55:56;6.15;;;5.22;;
51618;SDS011;38518;53.164;5.430;2022-09-29T04:58:28;7.00;;;6.30;;
51618;SDS011;38518;53.164;5.430;2022-09-29T05:00:54;8.77;;;7.97;;
51618;SDS011;38518;53.164;5.430;2022-09-29T05:03:19;8.77;;;8.07;;
51618;SDS011;38518;53.164;5.430;2022-09-29T05:05:45;12.27;;;11.07;;
51618;SDS011;38518;53.164;5.430;2022-09-29T05:08:11;12.30;;;6.93;;
51618;SDS011;38518;53.164;5.430;2022-09-29T05:10:37;8.82;;;7.97;;
51618;SDS011;38518;53.164;5.430;2022-09-29T05:13:02;8.55;;;6.68;;
51618;SDS011;38518;53.164;5.430;2022-09-29T05:15:28;11.73;;;10.70;;
51618;SDS011;38518;53.164;5.430;2022-09-29T05:17:54;6.90;;;6.30;;
51618;SDS011;38518;53.164;5.430;2022-09-29T05:20:20;8.43;;;7.63;;
51618;SDS011;38518;53.164;5.430;2022-09-29T05:22:45;8.57;;;6.60;;
51618;SDS011;38518;53.164;5.430;2022-09-29T05:25:11;8.15;;;7.45;;
51618;SDS011;38518;53.164;5.430;2022-09-29T05:27:37;6.70;;;6.10;;
51618;SDS011;38518;53.164;5.430;2022-09-29T05:30:03;7.20;;;6.60;;
51618;SDS011;38518;53.164;5.430;2022-09-29T05:32:29;7.50;;;6.80;;
51618;SDS011;38518;53.164;5.430;2022-09-29T05:34:55;7.57;;;6.32;;
51618;SDS011;38518;53.164;5.430;2022-09-29T05:37:22;7.88;;;7.07;;
51618;SDS011;38518;53.164;5.430;2022-09-29T05:39:48;8.85;;;6.38;;
51618;SDS011;38518;53.164;5.430;2022-09-29T05:42:13;8.35;;;7.57;;
51618;SDS011;38518;53.164;5.430;2022-09-29T05:44:39;7.55;;;6.75;;
51618;SDS011;38518;53.164;5.430;2022-09-29T05:47:05;7.15;;;6.45;;
51618;SDS011;38518;53.164;5.430;2022-09-29T05:49:31;13.65;;;10.00;;
51618;SDS011;38518;53.164;5.430;2022-09-29T05:52:00;8.13;;;6.68;;
51618;SDS011;38518;53.164;5.430;2022-09-29T05:54:26;11.35;;;8.55;;
51618;SDS011;38518;53.164;5.430;2022-09-29T05:56:52;7.43;;;6.43;;
51618;SDS011;38518;53.164;5.430;2022-09-29T05:59:20;8.60;;;7.40;;
51618;SDS011;38518;53.164;5.430;2022-09-29T06:01:45;7.25;;;6.47;;
51618;SDS011;38518;53.164;5.430;2022-09-29T06:04:11;9.40;;;8.50;;
51618;SDS011;38518;53.164;5.430;2022-09-29T06:06:37;10.25;;;8.30;;
51618;SDS011;38518;53.164;5.430;2022-09-29T06:09:04;11.65;;;10.13;;
51618;SDS011;38518;53.164;5.430;2022-09-29T06:11:31;11.60;;;9.25;;
51618;SDS011;38518;53.164;5.430;2022-09-29T06:13:57;8.52;;;7.10;;
51618;SDS011;38518;53.164;5.430;2022-09-29T06:16:25;8.80;;;7.72;;
51618;SDS011;38518;53.164;5.430;2022-09-29T06:18:54;11.10;;;7.60;;
51618;SDS011;38518;53.164;5.430;2022-09-29T06:21:24;7.95;;;6.88;;
51618;SDS011;38518;53.164;5.430;2022-09-29T06:23:54;7.97;;;6.68;;
51618;SDS011;38518;53.164;5.430;2022-09-29T06:26:22;12.00;;;10.77;;
51618;SDS011;38518;53.164;5.430;2022-09-29T06:28:49;9.15;;;7.60;;
51618;SDS011;38518;53.164;5.430;2022-09-29T06:31:16;9.43;;;7.15;;
51618;SDS011;38518;53.164;5.430;2022-09-29T06:33:43;7.95;;;6.95;;
51618;SDS011;38518;53.164;5.430;2022-09-29T06:39:03;8.60;;;7.70;;
51618;SDS011;38518;53.164;5.430;2022-09-29T06:41:29;8.02;;;7.22;;
51618;SDS011;38518;53.164;5.430;2022-09-29T06:43:55;7.22;;;6.50;;
51618;SDS011;38518;53.164;5.430;2022-09-29T06:46:24;8.43;;;6.85;;
51618;SDS011;38518;53.164;5.430;2022-09-29T06:48:51;8.60;;;7.53;;
51618;SDS011;38518;53.164;5.430;2022-09-29T06:51:18;7.88;;;7.07;;
51618;SDS011;38518;53.164;5.430;2022-09-29T06:53:46;8.10;;;7.30;;
51618;SDS011;38518;53.164;5.430;2022-09-29T06:56:13;8.65;;;6.95;;
51618;SDS011;38518;53.164;5.430;2022-09-29T06:58:38;7.00;;;6.10;;
51618;SDS011;38518;53.164;5.430;2022-09-29T07:01:04;7.40;;;6.70;;
51618;SDS011;38518;53.164;5.430;2022-09-29T07:03:31;7.75;;;7.05;;
51618;SDS011;38518;53.164;5.430;2022-09-29T07:06:01;8.13;;;7.32;;
51618;SDS011;38518;53.164;5.430;2022-09-29T07:08:34;9.38;;;8.48;;
51618;SDS011;38518;53.164;5.430;2022-09-29T07:11:03;8.95;;;8.07;;
51618;SDS011;38518;53.164;5.430;2022-09-29T07:13:34;9.07;;;8.18;;
51618;SDS011;38518;53.164;5.430;2022-09-29T07:16:11;9.45;;;8.48;;
51618;SDS011;38518;53.164;5.430;2022-09-29T07:18:43;8.27;;;7.47;;
51618;SDS011;38518;53.164;5.430;2022-09-29T07:21:11;8.73;;;7.82;;
51618;SDS011;38518;53.164;5.430;2022-09-29T07:23:42;9.10;;;8.23;;
51618;SDS011;38518;53.164;5.430;2022-09-29T07:26:09;8.55;;;7.75;;
51618;SDS011;38518;53.164;5.430;2022-09-29T07:28:35;8.38;;;7.57;;
51618;SDS011;38518;53.164;5.430;2022-09-29T07:31:05;9.70;;;8.48;;
51618;SDS011;38518;53.164;5.430;2022-09-29T07:33:37;9.40;;;7.78;;
51618;SDS011;38518;53.164;5.430;2022-09-29T07:36:03;7.95;;;7.15;;
51618;SDS011;38518;53.164;5.430;2022-09-29T07:38:30;8.98;;;6.88;;
51618;SDS011;38518;53.164;5.430;2022-09-29T07:41:03;7.30;;;6.70;;
51618;SDS011;38518;53.164;5.430;2022-09-29T07:43:30;7.72;;;6.93;;
51618;SDS011;38518;53.164;5.430;2022-09-29T07:45:59;8.18;;;6.80;;
51618;SDS011;38518;53.164;5.430;2022-09-29T07:48:26;9.55;;;6.78;;
51618;SDS011;38518;53.164;5.430;2022-09-29T07:51:03;7.60;;;6.30;;
51618;SDS011;38518;53.164;5.430;2022-09-29T07:53:40;6.85;;;6.25;;
51618;SDS011;38518;53.164;5.430;2022-09-29T07:56:07;7.78;;;6.88;;
51618;SDS011;38518;53.164;5.430;2022-09-29T07:58:35;6.85;;;6.20;;
51618;SDS011;38518;53.164;5.430;2022-09-29T08:01:02;6.75;;;6.05;;
51618;SDS011;38518;53.164;5.430;2022-09-29T08:03:35;7.30;;;5.80;;
51618;SDS011;38518;53.164;5.430;2022-09-29T08:13:23;5.32;;;4.82;;
51618;SDS011;38518;53.164;5.430;2022-09-29T08:15:55;4.68;;;4.25;;
51618;SDS011;38518;53.164;5.430;2022-09-29T08:18:22;4.80;;;3.45;;
51618;SDS011;38518;53.164;5.430;2022-09-29T08:20:48;4.43;;;3.20;;
51618;SDS011;38518;53.164;5.430;2022-09-29T08:23:14;3.80;;;3.40;;
51618;SDS011;38518;53.164;5.430;2022-09-29T08:25:40;4.85;;;3.53;;
51618;SDS011;38518;53.164;5.430;2022-09-29T08:28:07;4.72;;;3.20;;
51618;SDS011;38518;53.164;5.430;2022-09-29T08:48:27;4.32;;;2.95;;
51618;SDS011;38518;53.164;5.430;2022-09-29T08:54:59;2.28;;;1.90;;
51618;SDS011;38518;53.164;5.430;2022-09-29T08:57:38;2.35;;;1.60;;
51618;SDS011;38518;53.164;5.430;2022-09-29T09:00:05;2.63;;;1.95;;
51618;SDS011;38518;53.164;5.430;2022-09-29T09:03:19;2.10;;;1.67;;
51618;SDS011;38518;53.164;5.430;2022-09-29T09:11:52;3.00;;;1.98;;
51618;SDS011;38518;53.164;5.430;2022-09-29T09:17:53;3.65;;;1.92;;
51618;SDS011;38518;53.164;5.430;2022-09-29T09:20:44;3.53;;;2.50;;
51618;SDS011;38518;53.164;5.430;2022-09-29T09:23:41;2.90;;;2.65;;
51618;SDS011;38518;53.164;5.430;2022-09-29T09:26:12;3.92;;;3.53;;
51618;SDS011;38518;53.164;5.430;2022-09-29T09:28:47;4.43;;;3.92;;
51618;SDS011;38518;53.164;5.430;2022-09-29T09:31:26;4.70;;;4.30;;
51618;SDS011;38518;53.164;5.430;2022-09-29T09:34:01;4.95;;;4.18;;
51618;SDS011;38518;53.164;5.430;2022-09-29T09:36:40;6.03;;;3.80;;
51618;SDS011;38518;53.164;5.430;2022-09-29T09:39:24;4.68;;;4.10;;
51618;SDS011;38518;53.164;5.430;2022-09-29T09:41:57;4.47;;;3.40;;
51618;SDS011;38518;53.164;5.430;2022-09-29T09:44:33;3.97;;;3.58;;
51618;SDS011;38518;53.164;5.430;2022-09-29T09:47:24;5.47;;;3.45;;
51618;SDS011;38518;53.164;5.430;2022-09-29T09:52:32;4.07;;;3.28;;
51618;SDS011;38518;53.164;5.430;2022-09-29T09:55:06;5.68;;;4.03;;
51618;SDS011;38518;53.164;5.430;2022-09-29T10:02:53;5.07;;;3.90;;
51618;SDS011;38518;53.164;5.430;2022-09-29T10:05:21;4.85;;;3.67;;
51618;SDS011;38518;53.164;5.430;2022-09-29T10:10:52;4.78;;;3.20;;
51618;SDS011;38518;53.164;5.430;2022-09-29T10:13:18;3.13;;;2.75;;
51618;SDS011;38518;53.164;5.430;2022-09-29T10:15:55;4.65;;;2.90;;
51618;SDS011;38518;53.164;5.430;2022-09-29T10:18:41;4.22;;;2.50;;
51618;SDS011;38518;53.164;5.430;2022-09-29T10:24:03;1.98;;;1.67;;
51618;SDS011;38518;53.164;5.430;2022-09-29T10:26:35;2.58;;;1.52;;
51618;SDS011;38518;53.164;5.430;2022-09-29T10:31:59;2.85;;;1.90;;
51618;SDS011;38518;53.164;5.430;2022-09-29T10:34:28;2.60;;;2.22;;
51618;SDS011;38518;53.164;5.430;2022-09-29T10:36:57;3.42;;;2.00;;
51618;SDS011;38518;53.164;5.430;2022-09-29T10:42:20;3.03;;;1.63;;
51618;SDS011;38518;53.164;5.430;2022-09-29T10:47:40;1.67;;;1.30;;
51618;SDS011;38518;53.164;5.430;2022-09-29T10:50:19;1.98;;;1.10;;
51618;SDS011;38518;53.164;5.430;2022-09-29T10:52:54;1.13;;;1.02;;
51618;SDS011;38518;53.164;5.430;2022-09-29T10:55:26;2.33;;;1.40;;
51618;SDS011;38518;53.164;5.430;2022-09-29T10:57:55;2.03;;;1.50;;
51618;SDS011;38518;53.164;5.430;2022-09-29T11:06:05;4.72;;;1.30;;
51618;SDS011;38518;53.164;5.430;2022-09-29T11:13:50;2.97;;;0.90;;
51618;SDS011;38518;53.164;5.430;2022-09-29T11:16:35;3.08;;;0.85;;
51618;SDS011;38518;53.164;5.430;2022-09-29T11:19:06;1.88;;;0.80;;
51618;SDS011;38518;53.164;5.430;2022-09-29T11:24:12;3.92;;;1.35;;
51618;SDS011;38518;53.164;5.430;2022-09-29T11:26:53;3.80;;;1.10;;
51618;SDS011;38518;53.164;5.430;2022-09-29T11:32:26;2.50;;;0.95;;
51618;SDS011;38518;53.164;5.430;2022-09-29T11:54:24;1.17;;;0.77;;
51618;SDS011;38518;53.164;5.430;2022-09-29T11:56:55;2.72;;;0.85;;
51618;SDS011;38518;53.164;5.430;2022-09-29T12:05:01;1.73;;;1.10;;
51618;SDS011;38518;53.164;5.430;2022-09-29T12:16:19;1.33;;;0.80;;
51618;SDS011;38518;53.164;5.430;2022-09-29T12:18:53;1.52;;;0.80;;
51618;SDS011;38518;53.164;5.430;2022-09-29T12:21:35;1.98;;;1.00;;
51618;SDS011;38518;53.164;5.430;2022-09-29T12:24:06;1.27;;;0.90;;
51618;SDS011;38518;53.164;5.430;2022-09-29T12:26:48;2.70;;;1.15;;
51618;SDS011;38518;53.164;5.430;2022-09-29T12:29:24;1.73;;;0.80;;
51618;SDS011;38518;53.164;5.430;2022-09-29T12:31:58;1.35;;;0.98;;
51618;SDS011;38518;53.164;5.430;2022-09-29T12:37:24;2.05;;;0.93;;
51618;SDS011;38518;53.164;5.430;2022-09-29T12:40:34;1.33;;;0.88;;
51618;SDS011;38518;53.164;5.430;2022-09-29T12:43:21;2.78;;;1.00;;
51618;SDS011;38518;53.164;5.430;2022-09-29T12:46:11;1.65;;;0.80;;
51618;SDS011;38518;53.164;5.430;2022-09-29T12:59:48;1.67;;;0.85;;
51618;SDS011;38518;53.164;5.430;2022-09-29T13:05:08;2.05;;;1.02;;
51618;SDS011;38518;53.164;5.430;2022-09-29T13:10:54;1.55;;;0.80;;
51618;SDS011;38518;53.164;5.430;2022-09-29T13:16:22;2.47;;;1.10;;
51618;SDS011;38518;53.164;5.430;2022-09-29T13:27:28;1.67;;;0.57;;
51618;SDS011;38518;53.164;5.430;2022-09-29T13:30:10;1.13;;;0.60;;
51618;SDS011;38518;53.164;5.430;2022-09-29T13:32:51;1.60;;;0.70;;
51618;SDS011;38518;53.164;5.430;2022-09-29T13:35:22;2.35;;;0.73;;
51618;SDS011;38518;53.164;5.430;2022-09-29T13:40:26;1.20;;;0.60;;
51618;SDS011;38518;53.164;5.430;2022-09-29T13:42:54;1.65;;;0.77;;
51618;SDS011;38518;53.164;5.430;2022-09-29T13:47:52;0.77;;;0.50;;
51618;SDS011;38518;53.164;5.430;2022-09-29T14:01:10;1.27;;;0.60;;
51618;SDS011;38518;53.164;5.430;2022-09-29T14:03:39;1.55;;;0.50;;
51618;SDS011;38518;53.164;5.430;2022-09-29T14:06:23;0.57;;;0.52;;
51618;SDS011;38518;53.164;5.430;2022-09-29T14:08:59;1.08;;;0.60;;
51618;SDS011;38518;53.164;5.430;2022-09-29T14:11:32;0.93;;;0.63;;
51618;SDS011;38518;53.164;5.430;2022-09-29T14:19:36;0.90;;;0.57;;
51618;SDS011;38518;53.164;5.430;2022-09-29T14:22:55;1.15;;;0.60;;
51618;SDS011;38518;53.164;5.430;2022-09-29T14:25:27;1.25;;;0.60;;
51618;SDS011;38518;53.164;5.430;2022-09-29T14:28:09;2.60;;;0.70;;
51618;SDS011;38518;53.164;5.430;2022-09-29T14:30:44;2.10;;;0.50;;
51618;SDS011;38518;53.164;5.430;2022-09-29T14:33:35;2.05;;;0.70;;
51618;SDS011;38518;53.164;5.430;2022-09-29T14:36:06;0.82;;;0.50;;
51618;SDS011;38518;53.164;5.430;2022-09-29T14:38:43;1.38;;;0.50;;
51618;SDS011;38518;53.164;5.430;2022-09-29T14:41:27;1.30;;;0.60;;
51618;SDS011;38518;53.164;5.430;2022-09-29T14:44:00;1.10;;;0.50;;
51618;SDS011;38518;53.164;5.430;2022-09-29T14:49:45;0.70;;;0.50;;
51618;SDS011;38518;53.164;5.430;2022-09-29T14:55:36;0.75;;;0.47;;
51618;SDS011;38518;53.164;5.430;2022-09-29T14:58:15;2.15;;;0.68;;
51618;SDS011;38518;53.164;5.430;2022-09-29T15:01:03;0.98;;;0.60;;
51618;SDS011;38518;53.164;5.430;2022-09-29T15:03:47;0.93;;;0.70;;
51618;SDS011;38518;53.164;5.430;2022-09-29T15:06:19;0.63;;;0.50;;
51618;SDS011;38518;53.164;5.430;2022-09-29T15:09:33;0.80;;;0.60;;
51618;SDS011;38518;53.164;5.430;2022-09-29T15:11:43;2.13;;;0.55;;
51618;SDS011;38518;53.164;5.430;2022-09-29T15:22:02;1.38;;;0.68;;
51618;SDS011;38518;53.164;5.430;2022-09-29T15:24:37;0.90;;;0.57;;
51618;SDS011;38518;53.164;5.430;2022-09-29T15:27:14;1.95;;;0.57;;
51618;SDS011;38518;53.164;5.430;2022-09-29T15:29:46;0.70;;;0.55;;
51618;SDS011;38518;53.164;5.430;2022-09-29T15:32:18;0.80;;;0.60;;
51618;SDS011;38518;53.164;5.430;2022-09-29T15:34:45;1.35;;;0.70;;
51618;SDS011;38518;53.164;5.430;2022-09-29T15:37:12;1.85;;;0.60;;
51618;SDS011;38518;53.164;5.430;2022-09-29T15:39:42;1.92;;;0.75;;
51618;SDS011;38518;53.164;5.430;2022-09-29T15:42:30;1.48;;;0.75;;
51618;SDS011;38518;53.164;5.430;2022-09-29T15:45:01;2.08;;;0.70;;
51618;SDS011;38518;53.164;5.430;2022-09-29T15:47:40;0.93;;;0.60;;
51618;SDS011;38518;53.164;5.430;2022-09-29T15:50:16;7.07;;;0.80;;
51618;SDS011;38518;53.164;5.430;2022-09-29T15:52:47;2.22;;;0.80;;
51618;SDS011;38518;53.164;5.430;2022-09-29T15:55:16;1.65;;;0.68;;
51618;SDS011;38518;53.164;5.430;2022-09-29T15:57:46;1.10;;;0.65;;
51618;SDS011;38518;53.164;5.430;2022-09-29T16:02:46;1.00;;;0.70;;
51618;SDS011;38518;53.164;5.430;2022-09-29T16:05:33;3.08;;;0.60;;
51618;SDS011;38518;53.164;5.430;2022-09-29T16:08:02;1.52;;;0.90;;
51618;SDS011;38518;53.164;5.430;2022-09-29T16:10:41;1.00;;;0.70;;
51618;SDS011;38518;53.164;5.430;2022-09-29T16:13:24;1.20;;;0.70;;
51618;SDS011;38518;53.164;5.430;2022-09-29T16:16:05;2.08;;;0.60;;
51618;SDS011;38518;53.164;5.430;2022-09-29T16:21:04;1.58;;;0.90;;
51618;SDS011;38518;53.164;5.430;2022-09-29T16:31:47;2.60;;;0.93;;
51618;SDS011;38518;53.164;5.430;2022-09-29T16:36:58;4.03;;;1.15;;
51618;SDS011;38518;53.164;5.430;2022-09-29T16:39:29;3.35;;;0.85;;
51618;SDS011;38518;53.164;5.430;2022-09-29T16:41:58;1.55;;;0.82;;
51618;SDS011;38518;53.164;5.430;2022-09-29T16:44:34;2.17;;;0.82;;
51618;SDS011;38518;53.164;5.430;2022-09-29T16:47:14;2.40;;;0.90;;
51618;SDS011;38518;53.164;5.430;2022-09-29T16:54:46;2.38;;;0.75;;
51618;SDS011;38518;53.164;5.430;2022-09-29T16:57:25;1.77;;;0.70;;
51618;SDS011;38518;53.164;5.430;2022-09-29T16:59:58;1.67;;;0.80;;
51618;SDS011;38518;53.164;5.430;2022-09-29T17:02:27;1.83;;;0.70;;
51618;SDS011;38518;53.164;5.430;2022-09-29T17:04:53;1.65;;;0.75;;
51618;SDS011;38518;53.164;5.430;2022-09-29T17:07:22;2.30;;;0.90;;
51618;SDS011;38518;53.164;5.430;2022-09-29T17:09:51;2.45;;;0.90;;
51618;SDS011;38518;53.164;5.430;2022-09-29T17:12:20;1.10;;;0.77;;
51618;SDS011;38518;53.164;5.430;2022-09-29T17:14:46;1.98;;;0.88;;
51618;SDS011;38518;53.164;5.430;2022-09-29T17:19:50;1.08;;;0.80;;
51618;SDS011;38518;53.164;5.430;2022-09-29T17:22:28;1.40;;;0.70;;
51618;SDS011;38518;53.164;5.430;2022-09-29T17:24:56;1.27;;;0.90;;
51618;SDS011;38518;53.164;5.430;2022-09-29T17:27:23;1.52;;;0.93;;
51618;SDS011;38518;53.164;5.430;2022-09-29T17:30:07;2.75;;;1.20;;
51618;SDS011;38518;53.164;5.430;2022-09-29T17:32:36;1.98;;;1.58;;
51618;SDS011;38518;53.164;5.430;2022-09-29T17:35:03;2.28;;;1.30;;
51618;SDS011;38518;53.164;5.430;2022-09-29T17:37:31;2.60;;;1.80;;
51618;SDS011;38518;53.164;5.430;2022-09-29T17:39:56;3.85;;;2.78;;
51618;SDS011;38518;53.164;5.430;2022-09-29T17:42:28;6.30;;;4.80;;
51618;SDS011;38518;53.164;5.430;2022-09-29T17:44:54;10.48;;;8.63;;
51618;SDS011;38518;53.164;5.430;2022-09-29T17:47:20;7.03;;;5.82;;
51618;SDS011;38518;53.164;5.430;2022-09-29T17:52:55;2.15;;;1.83;;
51618;SDS011;38518;53.164;5.430;2022-09-29T17:55:25;1.50;;;1.40;;
51618;SDS011;38518;53.164;5.430;2022-09-29T17:57:51;2.17;;;1.80;;
51618;SDS011;38518;53.164;5.430;2022-09-29T18:00:19;1.77;;;1.52;;
51618;SDS011;38518;53.164;5.430;2022-09-29T18:02:56;2.35;;;1.42;;
51618;SDS011;38518;53.164;5.430;2022-09-29T18:05:24;2.28;;;1.55;;
51618;SDS011;38518;53.164;5.430;2022-09-29T18:07:51;1.90;;;1.10;;
51618;SDS011;38518;53.164;5.430;2022-09-29T18:10:25;2.17;;;1.00;;
51618;SDS011;38518;53.164;5.430;2022-09-29T18:12:53;1.50;;;1.00;;
51618;SDS011;38518;53.164;5.430;2022-09-29T18:15:19;2.67;;;1.10;;
51618;SDS011;38518;53.164;5.430;2022-09-29T18:17:45;1.90;;;1.23;;
51618;SDS011;38518;53.164;5.430;2022-09-29T18:20:19;2.80;;;1.42;;
51618;SDS011;38518;53.164;5.430;2022-09-29T18:22:46;2.43;;;1.20;;
51618;SDS011;38518;53.164;5.430;2022-09-29T18:25:15;2.55;;;1.20;;
51618;SDS011;38518;53.164;5.430;2022-09-29T18:27:43;3.17;;;1.27;;
51618;SDS011;38518;53.164;5.430;2022-09-29T18:30:14;2.05;;;1.05;;
51618;SDS011;38518;53.164;5.430;2022-09-29T18:32:45;5.20;;;1.30;;
51618;SDS011;38518;53.164;5.430;2022-09-29T18:35:14;6.07;;;1.90;;
51618;SDS011;38518;53.164;5.430;2022-09-29T18:37:42;2.67;;;1.38;;
51618;SDS011;38518;53.164;5.430;2022-09-29T18:40:08;3.00;;;1.30;;
51618;SDS011;38518;53.164;5.430;2022-09-29T18:42:44;4.70;;;1.23;;
51618;SDS011;38518;53.164;5.430;2022-09-29T18:45:13;3.15;;;2.03;;
51618;SDS011;38518;53.164;5.430;2022-09-29T18:47:42;4.05;;;3.58;;
51618;SDS011;38518;53.164;5.430;2022-09-29T18:50:12;3.47;;;3.17;;
51618;SDS011;38518;53.164;5.430;2022-09-29T18:52:49;9.77;;;4.18;;
51618;SDS011;38518;53.164;5.430;2022-09-29T18:55:20;5.05;;;3.67;;
51618;SDS011;38518;53.164;5.430;2022-09-29T18:57:48;4.57;;;3.42;;
51618;SDS011;38518;53.164;5.430;2022-09-29T19:00:16;3.80;;;2.97;;
51618;SDS011;38518;53.164;5.430;2022-09-29T19:02:44;6.03;;;2.90;;
51618;SDS011;38518;53.164;5.430;2022-09-29T19:05:15;2.88;;;2.50;;
51618;SDS011;38518;53.164;5.430;2022-09-29T19:07:45;3.25;;;2.70;;
51618;SDS011;38518;53.164;5.430;2022-09-29T19:10:13;3.38;;;3.05;;